83.3F
Current conditions from King Hill
Updated every 5 minutes
 
  Friday May 29, 2020

Observations for Westford

Westford

44° 37' 38"N, 73° 02' 29"W, Elevation 850 ft.
Eastern Time

Hourly observations for the last 72 hours

Date Time Temperature (°F) Humi-
dity

(%)
Wind
(mph)
Pressure Rain (in)
Air Dew 6 Hour 1 Hr 3 Hr 6 Hr Day
Alt
(in)
Sea
Level

(mb)
Max Min
29 15:00 82.8 69.8 65 S 4 G 16 29.70 1005.9 0.00
29 14:00 81.2 70.5 84.2 72.5 70 SW 2 G 14 29.74 1007.2 0.00
29 13:00 84.1 72.0 67 ESE 6 G 17 29.77 1008.1 0.00
29 12:00 81.5 71.2 71 SSE 3 G 17 29.80 1009.0 0.00
29 11:00 79.8 70.0 72 S 6 G 19 29.81 1009.7 0.00
29 10:00 77.4 68.9 75 SSE 2 G 14 29.83 1010.1 0.00
29 09:00 75.2 69.0 81 S 3 G 14 29.85 1010.7 0.00
29 08:00 72.5 68.4 72.5 69.3 87 S 4 G 12 29.85 1010.8 0.00
29 07:00 70.8 67.1 88 SSE 4 G 14 29.85 1010.8 0.00
29 06:00 69.8 66.7 90 SSE 3 G 13 29.84 1010.5 0.00
29 05:00 69.4 66.0 89 S 5 G 12 29.84 1010.6 0.00
29 04:00 70.0 66.3 88 SSW 3 G 16 29.84 1010.6 0.00
29 03:00 70.7 66.3 86 S 1 G 10 29.84 1010.6 0.00
29 02:00 71.2 66.1 74.8 71.2 84 SSE 3 G 15 29.84 1010.6 0.00
29 01:00 72.2 66.4 82 SSE 4 G 14 29.85 1010.9 0.00
29 00:00 72.6 66.1 80 S 7 G 20 29.85 1010.9 0.00
28 23:00 73.3 65.7 77 SSE 4 G 18 29.88 1011.8 0.00
28 22:00 73.4 65.4 76 S 5 G 13 29.89 1012.1 0.00
28 21:00 73.9 65.1 74 S 9 G 22 29.88 1012.0 0.00
28 20:00 74.8 65.2 81.8 74.8 72 SSE 5 G 16 29.88 1012.0 0.00
28 19:00 76.2 66.9 73 S 3 G 17 29.90 1012.6 0.00
28 18:00 77.1 66.2 69 S 4 G 11 29.91 1013.0 0.00
28 17:00 79.8 66.6 64 S 8 G 16 29.93 1013.5 0.00
28 16:00 79.0 66.7 66 S 3 G 15 29.93 1013.7 0.00
28 15:00 79.1 66.8 66 S 2 G 16 29.95 1014.3 0.00
28 14:00 78.5 65.8 82.1 70.6 65 SSE 3 G 11 29.97 1014.9 0.00
28 13:00 81.5 64.8 57 SSW 7 G 18 29.99 1015.5 0.00
28 12:00 79.1 65.4 63 S 4 G 14 30.00 1016.0 0.00
28 11:00 76.4 65.1 68 S 4 G 12 30.01 1016.4 0.00
28 10:00 74.6 66.5 76 S 1 G 14 30.02 1016.7 0.00
28 09:00 72.6 65.0 77 S 4 G 10 30.05 1017.6 0.00
28 08:00 70.6 64.5 72.1 68.1 81 S 1 G 10 30.05 1017.7 0.00
28 07:00 68.7 63.0 82 S 2 G 10 30.04 1017.4 0.00
28 06:00 68.4 62.3 81 S 4 G 8 30.04 1017.3 0.00
28 05:00 68.9 62.1 79 S 2 G 11 30.03 1016.8 0.00
28 04:00 69.7 61.8 76 S 2 G 12 30.01 1016.3 0.00
28 03:00 70.7 61.6 73 S 5 G 10 30.02 1016.6 0.00
28 02:00 72.1 61.4 82.0 72.1 69 S 3 G 13 30.02 1016.6 0.00
28 01:00 73.4 60.9 65 S 4 G 9 30.02 1016.7 0.00
28 00:00 74.8 60.9 62 S 3 G 7 30.02 1016.8 0.00
27 23:00 75.8 61.4 61 S 3 G 13 30.01 1016.4 0.00
27 22:00 75.6 63.5 66 S 2 G 8 30.00 1016.1 0.00
27 21:00 77.0 65.2 67 SSE 0 G 6 29.99 1015.4 0.00
27 20:00 82.0 66.3 91.8 82.0 59 S 0 G 6 29.97 1015.0 0.00
27 19:00 83.3 67.0 58 SSE 1 G 7 29.97 1015.0 0.00
27 18:00 85.0 66.0 53 SSE 1 G 8 29.97 1014.9 0.00
27 17:00 89.6 64.2 43 S 4 G 16 29.97 1015.1 0.00
27 16:00 91.5 65.2 42 SSW 4 G 12 29.99 1015.5 0.00
27 15:00 90.9 66.0 44 SSW 5 G 9 30.00 1015.9 0.00
27 14:00 90.4 66.8 90.4 74.2 46 SSE 6 G 13 30.02 1016.5 0.00
27 13:00 89.2 69.9 53 S 2 G 8 30.04 1017.2 0.00
27 12:00 86.8 69.8 57 S 3 G 11 30.05 1017.7 0.00
27 11:00 84.6 70.2 62 SSE 2 G 11 30.07 1018.2 0.00
27 10:00 81.0 67.7 64 SSW 3 G 14 30.06 1018.1 0.00
27 09:00 77.4 67.7 72 S 4 G 16 30.08 1018.7 0.00
27 08:00 74.2 65.8 74.2 67.0 75 S 5 G 13 30.08 1018.6 0.00
27 07:00 70.1 64.0 81 S 5 G 10 30.08 1018.5 0.00
27 06:00 68.6 62.5 81 S 3 G 10 30.07 1018.3 0.00
27 05:00 68.8 62.4 80 S 5 G 9 30.06 1018.0 0.00
27 04:00 68.9 61.8 78 SSE 3 G 10 30.06 1017.9 0.00
27 03:00 69.4 61.1 75 S 3 G 7 30.06 1018.0 0.00
27 02:00 67.1 60.4 80.4 67.0 79 S 2 G 5 30.06 1017.9 0.00
27 01:00 67.7 60.6 78 S 1 G 4 30.05 1017.7 0.00
27 00:00 67.2 60.8 80 S 0 G 3 30.06 1017.8 0.00
26 23:00 68.4 62.0 80 Calm 30.05 1017.5 0.00
26 22:00 70.6 62.3 75 Calm 30.03 1017.1 0.00
26 21:00 72.5 64.1 75 Calm 30.03 1016.9 0.00
26 20:00 80.4 66.2 89.7 80.4 62 Calm 30.01 1016.4 0.00
26 19:00 86.5 66.8 52 S 0 G 1 30.00 1016.1 0.00
26 18:00 88.6 65.8 47 S 0 G 7 30.00 1016.0 0.00
26 17:00 89.2 65.1 45 SE 1 G 9 30.01 1016.3 0.00
26 16:00 88.5 64.5 45 SW 3 G 9 30.02 1016.6 0.00

Data generated by WxSolution Version 1.9.1.7, Build 2018.11.24.


 
 
Current Radar Loop:

Copyright © WestfordWeather.net 2007-2020. All rights reserved.